METAR Data
IDs: Format: Raw Decoded Include TAF

Data at: 0658 UTC 23 Feb 2019

PATQ 230656Z AUTO 15008KT 10SM CLR M10/M12 A2990 RMK AO2 SLP131 T11001117 FZRANO TSNO
PATQ 230556Z AUTO 14018KT 10SM CLR M11/M12 A2992 RMK AO2 SNE09 SLP138 P0000 60000 T11061122 11106 21189 56018 FZRANO TSNO
PATQ 230456Z AUTO 15021KT 7SM -SN CLR M12/M13 A2993 RMK AO2 SNB01E11B36 SLP144 P0000 T11171128 FZRANO TSNO
PATQ 230356Z AUTO 14018KT 10SM CLR M14/M16 A2995 RMK AO2 SLP149 T11441156 FZRANO TSNO
PATQ 230256Z AUTO 13013KT 10SM CLR M18/M20 A2997 RMK AO2 SLP156 T11781200 58023 FZRANO TSNO
PATQ 230156Z AUTO 13013KT 10SM CLR M18/M21 A3000 RMK AO2 SLP166 T11831206 FZRANO TSNO
PATQ 230056Z AUTO 14014KT 10SM CLR M17/M19 A3001 RMK AO2 SLP171 T11721194 FZRANO TSNO
PATQ 222356Z AUTO 14015KT 10SM CLR M19/M21 A3004 RMK AO2 SLP180 60000 T11891211 11189 21244 58014 FZRANO TSNO
PATQ 222256Z AUTO 13016KT 10SM CLR M19/M22 A3005 RMK AO2 SNB07E17 SLP183 P0000 T11941217 FZRANO TSNO
PATQ 222156Z AUTO 11010KT 10SM CLR M21/M23 A3007 RMK AO2 SLP190 T12111233 FZRANO TSNO
PATQ 222056Z AUTO 10012KT 10SM CLR M23/M25 A3008 RMK AO2 SLP193 T12281250 56007 FZRANO TSNO
PATQ 221956Z AUTO 11012KT 10SM CLR M24/M26 A3009 RMK AO2 SLP196 T12391261 FZRANO TSNO
PATQ 221856Z AUTO 11013KT 10SM CLR M24/M27 A3009 RMK AO2 SLP197 T12391267 FZRANO TSNO
PATQ 221756Z AUTO 11014KT 10SM CLR M23/M26 A3010 RMK AO2 SNB05E22 SLP201 P0000 60000 T12331256 11172 21233 58014 FZRANO TSNO
PATQ 221656Z AUTO 11015KT 9SM CLR M22/M24 A3011 RMK AO2 SNE55 SLP204 P0000 T12171239 FZRANO TSNO
PATQ 221642Z AUTO 11015KT 3SM -SN BR CLR M21/M23 A3011 RMK AO2 P0000 FZRANO TSNO
PATQ 221628Z AUTO 11015KT 1 3/4SM -SN BR CLR M21/M23 A3012 RMK AO2 P0000 FZRANO TSNO
PATQ 221556Z AUTO 11014KT 3SM -SN BR FEW005 M19/M21 A3013 RMK AO2 SLP212 P0000 T11891211 FZRANO TSNO
PATQ 221541Z AUTO 11013KT 1 1/4SM -SN BR SCT002 M18/M20 A3014 RMK AO2 P0000 FZRANO TSNO
PATQ 221534Z AUTO 11015KT 1SM -SN BR BKN002 BKN007 M18/M20 A3014 RMK AO2 P0000 FZRANO TSNO
PATQ 221520Z AUTO 12019KT 1/2SM -SN FZFG OVC002 M18/M19 A3014 RMK AO2 P0000 FZRANO TSNO
PATQ 221511Z AUTO 11020KT 1SM -SN BR OVC002 M17/M19 A3014 RMK AO2 P0000 FZRANO TSNO
PATQ 221456Z AUTO 11016G23KT 2SM -SN BR OVC002 M17/M19 A3014 RMK AO2 VIS 1 1/2V3 SLP215 P0000 60000 T11721189 55006 FZRANO TSNO
PATQ 221453Z AUTO 12018KT 2 1/2SM -SN BR OVC002 M17/M19 A3014 RMK AO2 VIS 1 1/2V4 P0000 FZRANO TSNO
PATQ 221440Z AUTO 11020G25KT 1 3/4SM -SN BR OVC002 M17/M19 A3014 RMK AO2 VIS 3/4V3 P0000 FZRANO TSNO
PATQ 221356Z AUTO 10015KT 3SM -SN BR OVC002 M18/M19 A3015 RMK AO2 SLP218 P0000 T11781194 FZRANO TSNO
PATQ 221331Z AUTO 10017KT 4SM -SN BR OVC002 M18/M19 A3015 RMK AO2 P0000 FZRANO TSNO
PATQ 221306Z AUTO 10017KT 2SM -SN BR OVC004 M18/M19 A3016 RMK AO2 P0000 FZRANO TSNO
PATQ 221256Z AUTO 10017KT 5SM -SN BR OVC004 M18/M20 A3016 RMK AO2 SLP221 P0000 T11781200 FZRANO TSNO
PATQ 221156Z AUTO 10016KT 10SM -SN OVC006 M18/M19 A3017 RMK AO2 SNB1057 SLP223 P0000 60000 T11781194 11178 21183 58002 FZRANO TSNO
PATQ 221056Z AUTO 10017KT 10SM OVC006 M18/M20 A3018 RMK AO2 SNE0957B24E50 SLP226 P0000 T11781200 FZRANO TSNO
PATQ 220956Z AUTO 10016KT 9SM -SN BKN006 OVC009 M18/M19 A3018 RMK AO2 CIG 004V008 SLP226 P0000 T11781194 FZRANO TSNO
PATQ 220856Z AUTO 09015KT 8SM -SN OVC004 M18/M20 A3018 RMK AO2 SLP226 P0000 60000 T11781200 411671278 53002 FZRANO TSNO
PATQ 220756Z AUTO 09015KT 5SM -SN BR OVC004 M18/M20 A3017 RMK AO2 SLP225 P0000 T11831200 FZRANO TSNO
PATQ 220606Z AUTO 07012KT 9SM -SN OVC004 M18/M20 A3017 RMK AO2 P0000 FZRANO TSNO
PATQ 220556Z AUTO 06012KT 9SM -SN OVC006 M18/M20 A3017 RMK AO2 SLP224 P0000 60000 T11781200 11167 21178 51007 FZRANO TSNO
PATQ 220521Z AUTO 06012KT 9SM -SN OVC006 M17/M19 A3017 RMK AO2 CIG 004V008 P0000 FZRANO TSNO
PATQ 220505Z AUTO 07012KT 9SM OVC004 M17/M19 A3017 RMK AO2 SNE03 P0000 FZRANO TSNO
PATQ 220456Z AUTO 07011KT 9SM -SN OVC002 M17/M19 A3017 RMK AO2 SLP224 P0000 T11721189 FZRANO TSNO
PATQ 220434Z AUTO 07010KT 3SM -SN BR OVC002 M17/M19 A3016 RMK AO2 P0000 FZRANO TSNO
PATQ 220430Z AUTO 07010KT 1 1/4SM -SN BR OVC002 M17/M19 A3016 RMK AO2 P0000 FZRANO TSNO
PATQ 220358Z AUTO 07010KT 3/4SM -SN BR OVC002 M17/M19 A3016 RMK AO2 P0000 FZRANO TSNO
PATQ 220356Z AUTO 07008KT 1SM -SN BR OVC004 M17/M19 A3016 RMK AO2 SLP221 P0000 T11721189 FZRANO TSNO
PATQ 220335Z AUTO 07010KT 1SM -SN BR OVC004 M17/M19 A3015 RMK AO2 P0000 FZRANO TSNO
PATQ 220319Z AUTO 07010KT 3/4SM -SN BR OVC004 M17/M19 A3015 RMK AO2 P0000 FZRANO TSNO
PATQ 220310Z AUTO 07010KT 1/2SM -SN FZFG OVC004 M17/M19 A3015 RMK AO2 P0000 FZRANO TSNO
PATQ 220256Z AUTO 07010KT 3/4SM -SN BR OVC004 M17/M19 A3015 RMK AO2 SNE0157B14 SLP217 P0000 60000 T11721189 51003 FZRANO TSNO
PATQ 220254Z AUTO 07009KT 1SM -SN BR OVC004 M17/M19 A3015 RMK AO2 SNE0157B14 P0000 FZRANO TSNO
PATQ 220246Z AUTO 07010KT 3/4SM -SN BR OVC004 M17/M19 A3015 RMK AO2 SNE0157B14 P0000 FZRANO TSNO
PATQ 220233Z AUTO 07010KT 1/2SM -SN FZFG OVC004 M17/M19 A3015 RMK AO2 SNE0157B14 P0000 FZRANO TSNO
PATQ 220224Z AUTO 07011KT 3/4SM -SN BR OVC004 M17/M19 A3015 RMK AO2 SNE0157B14 P0000 FZRANO TSNO
PATQ 220220Z AUTO 07011KT 1 3/4SM -SN BR OVC004 M17/M19 A3015 RMK AO2 SNE0157B14 P0000 FZRANO TSNO
PATQ 220156Z AUTO 07012KT 8SM -SN OVC004 M17/M19 A3015 RMK AO2 SLP216 P0000 T11721194 FZRANO TSNO
PATQ 220113Z AUTO 07011KT 8SM -SN OVC004 M17/M19 A3015 RMK AO2 P0000 FZRANO TSNO
PATQ 220100Z AUTO 07012KT 3SM -SN BR OVC002 M17/M18 A3014 RMK AO2 P0000 FZRANO TSNO
PATQ 220058Z AUTO 07012KT 1 1/2SM -SN BR OVC002 M17/M18 A3014 RMK AO2 P0000 FZRANO TSNO
PATQ 220056Z AUTO 07011KT 3/4SM -SN BR OVC002 M17/M18 A3014 RMK AO2 SLP215 P0000 T11671183 FZRANO TSNO
PATQ 220013Z AUTO 06009KT 1/4SM -SN FZFG OVC002 M17/M18 A3014 RMK AO2 P0000 FZRANO TSNO
PATQ 212356Z AUTO 06007KT 1/2SM -SN FZFG OVC002 M17/M18 A3013 RMK AO2 SLP211 P0000 60000 T11671183 11167 21194 53009 FZRANO TSNO
PATQ 212350Z AUTO 06008KT 3/4SM -SN BR OVC002 M17/M18 A3013 RMK AO2 P0000 FZRANO TSNO
PATQ 212333Z AUTO 06008KT 1 3/4SM -SN BR OVC002 M17/M18 A3013 RMK AO2 VIS 1 1/4V3 P0000 FZRANO TSNO
PATQ 212328Z AUTO 06007KT 3SM -SN BR OVC002 M17/M18 A3013 RMK AO2 P0000 FZRANO TSNO
PATQ 212320Z AUTO 05005KT 2SM -SN BR OVC002 M17/M18 A3013 RMK AO2 P0000 FZRANO TSNO
PATQ 212300Z AUTO 05006KT 1SM -SN BR OVC002 M17/M18 A3012 RMK AO2 P0000 FZRANO TSNO
PATQ 212256Z AUTO 06006KT 1/2SM -SN FZFG OVC002 M17/M18 A3012 RMK AO2 SNB09 SLP208 P0000 T11671183 FZRANO TSNO
PATQ 212156Z AUTO 05006KT M1/4SM FZFG OVC002 M17/M19 A3011 RMK AO2 SLP204 T11721194 FZRANO TSNO
PATQ 212056Z AUTO M1/4SM FZFG OVC002 M18/M20 A3011 RMK AO2 SLP202 60000 T11831200 53012 FZRANO TSNO $
PATQ 211956Z AUTO 1/4SM FZFG OVC002 M18/M21 A3009 RMK AO2 SNB15E33 SLP197 P0000 T11831206 FZRANO TSNO $